sensor_id;sensor_type;location;lat;lon;timestamp;P1;durP1;ratioP1;P2;durP2;ratioP2
84301;SDS011;74468;52.218;6.896;2024-03-07T00:00:41;46.78;;;20.88;;
84301;SDS011;74468;52.218;6.896;2024-03-07T00:03:07;52.28;;;21.17;;
84301;SDS011;74468;52.218;6.896;2024-03-07T00:05:33;51.67;;;20.30;;
84301;SDS011;74468;52.218;6.896;2024-03-07T00:07:59;40.47;;;18.92;;
84301;SDS011;74468;52.218;6.896;2024-03-07T00:10:24;42.60;;;19.77;;
84301;SDS011;74468;52.218;6.896;2024-03-07T00:12:49;45.25;;;20.42;;
84301;SDS011;74468;52.218;6.896;2024-03-07T00:15:15;46.97;;;23.08;;
84301;SDS011;74468;52.218;6.896;2024-03-07T00:17:41;40.55;;;18.90;;
84301;SDS011;74468;52.218;6.896;2024-03-07T00:20:07;46.88;;;21.55;;
84301;SDS011;74468;52.218;6.896;2024-03-07T00:22:39;50.38;;;21.80;;
84301;SDS011;74468;52.218;6.896;2024-03-07T00:25:06;50.67;;;19.98;;
84301;SDS011;74468;52.218;6.896;2024-03-07T00:27:32;44.35;;;19.55;;
84301;SDS011;74468;52.218;6.896;2024-03-07T00:29:58;47.33;;;21.58;;
84301;SDS011;74468;52.218;6.896;2024-03-07T00:32:24;48.28;;;20.88;;
84301;SDS011;74468;52.218;6.896;2024-03-07T00:34:52;41.33;;;16.42;;
84301;SDS011;74468;52.218;6.896;2024-03-07T00:37:17;39.45;;;17.92;;
84301;SDS011;74468;52.218;6.896;2024-03-07T00:39:43;42.15;;;18.88;;
84301;SDS011;74468;52.218;6.896;2024-03-07T00:42:08;50.75;;;22.30;;
84301;SDS011;74468;52.218;6.896;2024-03-07T00:44:34;45.88;;;22.02;;
84301;SDS011;74468;52.218;6.896;2024-03-07T00:46:59;43.03;;;20.50;;
84301;SDS011;74468;52.218;6.896;2024-03-07T00:49:25;40.33;;;18.67;;
84301;SDS011;74468;52.218;6.896;2024-03-07T00:51:50;45.70;;;20.95;;
84301;SDS011;74468;52.218;6.896;2024-03-07T00:54:16;41.15;;;17.33;;
84301;SDS011;74468;52.218;6.896;2024-03-07T00:56:41;43.80;;;17.95;;
84301;SDS011;74468;52.218;6.896;2024-03-07T00:59:07;49.20;;;21.08;;
84301;SDS011;74468;52.218;6.896;2024-03-07T01:01:32;46.05;;;20.92;;
84301;SDS011;74468;52.218;6.896;2024-03-07T01:03:59;33.20;;;16.90;;
84301;SDS011;74468;52.218;6.896;2024-03-07T01:06:25;42.25;;;20.60;;
84301;SDS011;74468;52.218;6.896;2024-03-07T01:08:50;45.92;;;22.35;;
84301;SDS011;74468;52.218;6.896;2024-03-07T01:11:16;46.67;;;20.17;;
84301;SDS011;74468;52.218;6.896;2024-03-07T01:13:43;38.65;;;17.55;;
84301;SDS011;74468;52.218;6.896;2024-03-07T01:16:09;33.90;;;17.75;;
84301;SDS011;74468;52.218;6.896;2024-03-07T01:18:34;41.90;;;18.50;;
84301;SDS011;74468;52.218;6.896;2024-03-07T01:21:03;42.13;;;19.25;;
84301;SDS011;74468;52.218;6.896;2024-03-07T01:23:30;38.40;;;17.73;;
84301;SDS011;74468;52.218;6.896;2024-03-07T01:25:56;34.90;;;16.77;;
84301;SDS011;74468;52.218;6.896;2024-03-07T01:28:22;42.50;;;19.52;;
84301;SDS011;74468;52.218;6.896;2024-03-07T01:30:49;48.47;;;22.42;;
84301;SDS011;74468;52.218;6.896;2024-03-07T01:33:15;42.78;;;18.17;;
84301;SDS011;74468;52.218;6.896;2024-03-07T01:35:40;49.33;;;21.80;;
84301;SDS011;74468;52.218;6.896;2024-03-07T01:38:06;37.65;;;17.58;;
84301;SDS011;74468;52.218;6.896;2024-03-07T01:40:33;45.90;;;21.85;;
84301;SDS011;74468;52.218;6.896;2024-03-07T01:42:59;33.85;;;15.88;;
84301;SDS011;74468;52.218;6.896;2024-03-07T01:45:26;41.33;;;17.45;;
84301;SDS011;74468;52.218;6.896;2024-03-07T01:47:51;42.35;;;20.25;;
84301;SDS011;74468;52.218;6.896;2024-03-07T01:50:17;41.25;;;19.33;;
84301;SDS011;74468;52.218;6.896;2024-03-07T01:52:42;39.63;;;20.83;;
84301;SDS011;74468;52.218;6.896;2024-03-07T01:57:35;48.70;;;19.88;;
84301;SDS011;74468;52.218;6.896;2024-03-07T02:00:01;44.95;;;20.38;;
84301;SDS011;74468;52.218;6.896;2024-03-07T02:02:31;43.00;;;18.15;;
84301;SDS011;74468;52.218;6.896;2024-03-07T02:04:57;44.03;;;18.38;;
84301;SDS011;74468;52.218;6.896;2024-03-07T02:07:23;42.22;;;19.08;;
84301;SDS011;74468;52.218;6.896;2024-03-07T02:09:48;42.92;;;18.92;;
84301;SDS011;74468;52.218;6.896;2024-03-07T02:12:14;44.97;;;19.70;;
84301;SDS011;74468;52.218;6.896;2024-03-07T02:14:39;42.85;;;20.17;;
84301;SDS011;74468;52.218;6.896;2024-03-07T02:17:04;43.03;;;20.27;;
84301;SDS011;74468;52.218;6.896;2024-03-07T02:19:30;35.22;;;17.77;;
84301;SDS011;74468;52.218;6.896;2024-03-07T02:21:57;39.38;;;18.52;;
84301;SDS011;74468;52.218;6.896;2024-03-07T02:24:22;40.28;;;18.40;;
84301;SDS011;74468;52.218;6.896;2024-03-07T02:26:48;39.25;;;19.10;;
84301;SDS011;74468;52.218;6.896;2024-03-07T02:29:14;48.67;;;21.38;;
84301;SDS011;74468;52.218;6.896;2024-03-07T02:31:39;46.20;;;21.17;;
84301;SDS011;74468;52.218;6.896;2024-03-07T02:34:06;38.47;;;17.23;;
84301;SDS011;74468;52.218;6.896;2024-03-07T02:36:35;43.67;;;19.58;;
84301;SDS011;74468;52.218;6.896;2024-03-07T02:39:00;44.17;;;18.20;;
84301;SDS011;74468;52.218;6.896;2024-03-07T02:41:26;36.67;;;17.67;;
84301;SDS011;74468;52.218;6.896;2024-03-07T02:43:52;42.30;;;20.70;;
84301;SDS011;74468;52.218;6.896;2024-03-07T02:46:18;41.67;;;18.77;;
84301;SDS011;74468;52.218;6.896;2024-03-07T02:48:44;38.63;;;18.75;;
84301;SDS011;74468;52.218;6.896;2024-03-07T02:51:10;38.22;;;18.67;;
84301;SDS011;74468;52.218;6.896;2024-03-07T02:53:36;38.55;;;17.77;;
84301;SDS011;74468;52.218;6.896;2024-03-07T02:56:02;42.63;;;18.60;;
84301;SDS011;74468;52.218;6.896;2024-03-07T02:58:29;33.53;;;17.55;;
84301;SDS011;74468;52.218;6.896;2024-03-07T03:00:57;42.55;;;18.52;;
84301;SDS011;74468;52.218;6.896;2024-03-07T03:03:24;38.47;;;20.20;;
84301;SDS011;74468;52.218;6.896;2024-03-07T03:05:51;40.92;;;19.52;;
84301;SDS011;74468;52.218;6.896;2024-03-07T03:08:16;38.00;;;19.77;;
84301;SDS011;74468;52.218;6.896;2024-03-07T03:10:42;41.50;;;18.65;;
84301;SDS011;74468;52.218;6.896;2024-03-07T03:13:09;39.65;;;18.67;;
84301;SDS011;74468;52.218;6.896;2024-03-07T03:15:34;34.13;;;15.95;;
84301;SDS011;74468;52.218;6.896;2024-03-07T03:18:00;43.28;;;19.77;;
84301;SDS011;74468;52.218;6.896;2024-03-07T03:20:25;44.45;;;21.60;;
84301;SDS011;74468;52.218;6.896;2024-03-07T03:22:56;36.83;;;15.73;;
84301;SDS011;74468;52.218;6.896;2024-03-07T03:25:21;39.95;;;18.27;;
84301;SDS011;74468;52.218;6.896;2024-03-07T03:27:48;43.22;;;18.48;;
84301;SDS011;74468;52.218;6.896;2024-03-07T03:30:14;38.20;;;18.20;;
84301;SDS011;74468;52.218;6.896;2024-03-07T03:32:40;39.38;;;17.50;;
84301;SDS011;74468;52.218;6.896;2024-03-07T03:35:06;42.03;;;19.02;;
84301;SDS011;74468;52.218;6.896;2024-03-07T03:37:38;36.40;;;18.63;;
84301;SDS011;74468;52.218;6.896;2024-03-07T03:40:10;40.72;;;18.08;;
84301;SDS011;74468;52.218;6.896;2024-03-07T03:42:36;41.63;;;19.85;;
84301;SDS011;74468;52.218;6.896;2024-03-07T03:45:03;39.22;;;19.27;;
84301;SDS011;74468;52.218;6.896;2024-03-07T03:47:35;30.50;;;16.10;;
84301;SDS011;74468;52.218;6.896;2024-03-07T03:50:02;31.27;;;16.70;;
84301;SDS011;74468;52.218;6.896;2024-03-07T03:52:29;43.67;;;19.38;;
84301;SDS011;74468;52.218;6.896;2024-03-07T03:54:54;28.88;;;14.60;;
84301;SDS011;74468;52.218;6.896;2024-03-07T03:57:19;37.25;;;17.80;;
84301;SDS011;74468;52.218;6.896;2024-03-07T03:59:45;33.53;;;14.88;;
84301;SDS011;74468;52.218;6.896;2024-03-07T04:02:10;31.20;;;14.95;;
84301;SDS011;74468;52.218;6.896;2024-03-07T04:04:38;36.30;;;16.75;;
84301;SDS011;74468;52.218;6.896;2024-03-07T04:07:04;34.25;;;14.45;;
84301;SDS011;74468;52.218;6.896;2024-03-07T04:09:30;23.33;;;12.25;;
84301;SDS011;74468;52.218;6.896;2024-03-07T04:11:56;21.70;;;11.02;;
84301;SDS011;74468;52.218;6.896;2024-03-07T04:14:22;30.08;;;16.65;;
84301;SDS011;74468;52.218;6.896;2024-03-07T04:16:47;30.65;;;14.27;;
84301;SDS011;74468;52.218;6.896;2024-03-07T04:19:13;25.73;;;12.95;;
84301;SDS011;74468;52.218;6.896;2024-03-07T04:21:38;32.33;;;16.52;;
84301;SDS011;74468;52.218;6.896;2024-03-07T04:24:04;34.63;;;16.05;;
84301;SDS011;74468;52.218;6.896;2024-03-07T04:26:30;21.05;;;10.52;;
84301;SDS011;74468;52.218;6.896;2024-03-07T04:28:55;30.75;;;14.98;;
84301;SDS011;74468;52.218;6.896;2024-03-07T04:31:21;35.80;;;19.00;;
84301;SDS011;74468;52.218;6.896;2024-03-07T04:33:47;31.25;;;16.08;;
84301;SDS011;74468;52.218;6.896;2024-03-07T04:36:12;31.17;;;14.77;;
84301;SDS011;74468;52.218;6.896;2024-03-07T04:38:37;33.45;;;16.00;;
84301;SDS011;74468;52.218;6.896;2024-03-07T04:41:03;30.85;;;14.60;;
84301;SDS011;74468;52.218;6.896;2024-03-07T04:43:29;22.08;;;10.10;;
84301;SDS011;74468;52.218;6.896;2024-03-07T04:45:54;34.65;;;16.42;;
84301;SDS011;74468;52.218;6.896;2024-03-07T04:48:20;27.95;;;14.43;;
84301;SDS011;74468;52.218;6.896;2024-03-07T04:50:46;25.90;;;13.65;;
84301;SDS011;74468;52.218;6.896;2024-03-07T04:53:11;23.08;;;12.40;;
84301;SDS011;74468;52.218;6.896;2024-03-07T04:55:37;31.92;;;16.13;;
84301;SDS011;74468;52.218;6.896;2024-03-07T04:58:02;25.55;;;11.10;;
84301;SDS011;74468;52.218;6.896;2024-03-07T05:00:28;24.83;;;12.68;;
84301;SDS011;74468;52.218;6.896;2024-03-07T05:02:55;25.58;;;12.35;;
84301;SDS011;74468;52.218;6.896;2024-03-07T05:05:21;26.02;;;13.23;;
84301;SDS011;74468;52.218;6.896;2024-03-07T05:07:51;34.88;;;15.88;;
84301;SDS011;74468;52.218;6.896;2024-03-07T05:10:17;26.95;;;13.93;;
84301;SDS011;74468;52.218;6.896;2024-03-07T05:12:42;28.08;;;14.85;;
84301;SDS011;74468;52.218;6.896;2024-03-07T05:15:08;31.40;;;15.50;;
84301;SDS011;74468;52.218;6.896;2024-03-07T05:17:36;22.40;;;12.27;;
84301;SDS011;74468;52.218;6.896;2024-03-07T05:20:04;26.73;;;12.38;;
84301;SDS011;74468;52.218;6.896;2024-03-07T05:22:35;28.27;;;12.40;;
84301;SDS011;74468;52.218;6.896;2024-03-07T05:25:15;28.33;;;16.23;;
84301;SDS011;74468;52.218;6.896;2024-03-07T05:27:41;22.17;;;11.45;;
84301;SDS011;74468;52.218;6.896;2024-03-07T05:30:07;25.65;;;13.25;;
84301;SDS011;74468;52.218;6.896;2024-03-07T05:32:36;29.58;;;13.80;;
84301;SDS011;74468;52.218;6.896;2024-03-07T05:35:02;20.13;;;13.13;;
84301;SDS011;74468;52.218;6.896;2024-03-07T05:37:27;26.42;;;12.73;;
84301;SDS011;74468;52.218;6.896;2024-03-07T05:39:52;26.25;;;13.95;;
84301;SDS011;74468;52.218;6.896;2024-03-07T05:42:18;18.52;;;11.65;;
84301;SDS011;74468;52.218;6.896;2024-03-07T05:44:45;23.65;;;12.85;;
84301;SDS011;74468;52.218;6.896;2024-03-07T05:47:10;23.23;;;13.65;;
84301;SDS011;74468;52.218;6.896;2024-03-07T05:49:38;27.40;;;12.88;;
84301;SDS011;74468;52.218;6.896;2024-03-07T05:52:04;25.05;;;11.98;;
84301;SDS011;74468;52.218;6.896;2024-03-07T05:54:31;24.23;;;12.40;;
84301;SDS011;74468;52.218;6.896;2024-03-07T05:56:56;28.90;;;15.27;;
84301;SDS011;74468;52.218;6.896;2024-03-07T05:59:22;23.25;;;13.55;;
84301;SDS011;74468;52.218;6.896;2024-03-07T06:01:48;24.17;;;13.48;;
84301;SDS011;74468;52.218;6.896;2024-03-07T06:04:13;20.23;;;10.20;;
84301;SDS011;74468;52.218;6.896;2024-03-07T06:06:40;28.77;;;12.50;;
84301;SDS011;74468;52.218;6.896;2024-03-07T06:09:07;26.60;;;12.85;;
84301;SDS011;74468;52.218;6.896;2024-03-07T06:11:34;24.98;;;10.85;;
84301;SDS011;74468;52.218;6.896;2024-03-07T06:14:00;21.52;;;10.73;;
84301;SDS011;74468;52.218;6.896;2024-03-07T06:16:29;24.23;;;12.13;;
84301;SDS011;74468;52.218;6.896;2024-03-07T06:18:57;21.95;;;11.25;;
84301;SDS011;74468;52.218;6.896;2024-03-07T06:21:24;16.40;;;9.63;;
84301;SDS011;74468;52.218;6.896;2024-03-07T06:23:50;20.85;;;9.95;;
84301;SDS011;74468;52.218;6.896;2024-03-07T06:26:24;28.98;;;12.88;;
84301;SDS011;74468;52.218;6.896;2024-03-07T06:29:16;16.23;;;8.73;;
84301;SDS011;74468;52.218;6.896;2024-03-07T06:31:42;22.02;;;12.05;;
84301;SDS011;74468;52.218;6.896;2024-03-07T06:34:08;17.58;;;9.95;;
84301;SDS011;74468;52.218;6.896;2024-03-07T06:36:34;28.65;;;13.15;;
84301;SDS011;74468;52.218;6.896;2024-03-07T06:39:00;24.67;;;11.50;;
84301;SDS011;74468;52.218;6.896;2024-03-07T06:41:25;20.95;;;10.13;;
84301;SDS011;74468;52.218;6.896;2024-03-07T06:43:51;19.70;;;10.20;;
84301;SDS011;74468;52.218;6.896;2024-03-07T06:46:18;22.45;;;12.18;;
84301;SDS011;74468;52.218;6.896;2024-03-07T06:51:10;18.45;;;9.30;;
84301;SDS011;74468;52.218;6.896;2024-03-07T06:53:35;17.70;;;9.13;;
84301;SDS011;74468;52.218;6.896;2024-03-07T06:56:01;18.27;;;10.57;;
84301;SDS011;74468;52.218;6.896;2024-03-07T06:58:26;19.35;;;10.68;;
84301;SDS011;74468;52.218;6.896;2024-03-07T07:00:52;18.95;;;10.88;;
84301;SDS011;74468;52.218;6.896;2024-03-07T07:03:20;19.63;;;9.75;;
84301;SDS011;74468;52.218;6.896;2024-03-07T07:05:47;15.60;;;7.85;;
84301;SDS011;74468;52.218;6.896;2024-03-07T07:08:13;21.77;;;8.77;;
84301;SDS011;74468;52.218;6.896;2024-03-07T07:10:38;20.92;;;10.48;;
84301;SDS011;74468;52.218;6.896;2024-03-07T07:13:05;17.80;;;9.48;;
84301;SDS011;74468;52.218;6.896;2024-03-07T07:15:31;16.73;;;9.15;;
84301;SDS011;74468;52.218;6.896;2024-03-07T07:17:56;22.27;;;10.43;;
84301;SDS011;74468;52.218;6.896;2024-03-07T07:20:22;16.05;;;8.23;;
84301;SDS011;74468;52.218;6.896;2024-03-07T07:22:49;19.70;;;10.98;;
84301;SDS011;74468;52.218;6.896;2024-03-07T07:25:14;18.88;;;9.68;;
84301;SDS011;74468;52.218;6.896;2024-03-07T07:27:44;19.17;;;9.68;;
84301;SDS011;74468;52.218;6.896;2024-03-07T07:30:11;16.23;;;8.15;;
84301;SDS011;74468;52.218;6.896;2024-03-07T07:32:38;16.80;;;8.75;;
84301;SDS011;74468;52.218;6.896;2024-03-07T07:35:04;21.48;;;10.90;;
84301;SDS011;74468;52.218;6.896;2024-03-07T07:37:34;19.63;;;10.15;;
84301;SDS011;74468;52.218;6.896;2024-03-07T07:40:01;19.67;;;9.65;;
84301;SDS011;74468;52.218;6.896;2024-03-07T07:42:27;17.30;;;9.50;;
84301;SDS011;74468;52.218;6.896;2024-03-07T07:44:53;17.88;;;10.77;;
84301;SDS011;74468;52.218;6.896;2024-03-07T07:47:18;15.55;;;9.27;;
84301;SDS011;74468;52.218;6.896;2024-03-07T07:49:44;20.73;;;9.98;;
84301;SDS011;74468;52.218;6.896;2024-03-07T07:52:09;17.55;;;8.75;;
84301;SDS011;74468;52.218;6.896;2024-03-07T07:54:35;21.25;;;12.50;;
84301;SDS011;74468;52.218;6.896;2024-03-07T07:57:00;24.55;;;10.73;;
84301;SDS011;74468;52.218;6.896;2024-03-07T07:59:26;20.77;;;11.40;;
84301;SDS011;74468;52.218;6.896;2024-03-07T08:01:51;15.70;;;9.50;;
84301;SDS011;74468;52.218;6.896;2024-03-07T08:04:20;18.52;;;10.48;;
84301;SDS011;74468;52.218;6.896;2024-03-07T08:06:46;22.42;;;10.77;;
84301;SDS011;74468;52.218;6.896;2024-03-07T08:09:12;16.25;;;8.70;;
84301;SDS011;74468;52.218;6.896;2024-03-07T08:11:41;17.83;;;9.68;;
84301;SDS011;74468;52.218;6.896;2024-03-07T08:14:07;14.45;;;7.38;;
84301;SDS011;74468;52.218;6.896;2024-03-07T08:16:33;22.00;;;11.65;;
84301;SDS011;74468;52.218;6.896;2024-03-07T08:18:58;21.55;;;8.50;;
84301;SDS011;74468;52.218;6.896;2024-03-07T08:21:24;18.67;;;10.43;;
84301;SDS011;74468;52.218;6.896;2024-03-07T08:23:49;19.33;;;10.30;;
84301;SDS011;74468;52.218;6.896;2024-03-07T08:26:15;23.77;;;11.27;;
84301;SDS011;74468;52.218;6.896;2024-03-07T08:28:40;22.42;;;10.30;;
84301;SDS011;74468;52.218;6.896;2024-03-07T08:31:06;15.93;;;10.40;;
84301;SDS011;74468;52.218;6.896;2024-03-07T08:33:31;16.92;;;9.90;;
84301;SDS011;74468;52.218;6.896;2024-03-07T08:35:58;17.27;;;8.05;;
84301;SDS011;74468;52.218;6.896;2024-03-07T08:38:24;12.65;;;7.57;;
84301;SDS011;74468;52.218;6.896;2024-03-07T08:40:49;16.98;;;9.07;;
84301;SDS011;74468;52.218;6.896;2024-03-07T08:43:15;21.88;;;13.13;;
84301;SDS011;74468;52.218;6.896;2024-03-07T08:45:40;24.23;;;10.77;;
84301;SDS011;74468;52.218;6.896;2024-03-07T08:48:06;17.23;;;9.07;;
84301;SDS011;74468;52.218;6.896;2024-03-07T08:50:35;17.80;;;11.32;;
84301;SDS011;74468;52.218;6.896;2024-03-07T08:53:02;20.58;;;10.73;;
84301;SDS011;74468;52.218;6.896;2024-03-07T08:55:29;24.40;;;12.60;;
84301;SDS011;74468;52.218;6.896;2024-03-07T08:57:55;20.00;;;11.48;;
84301;SDS011;74468;52.218;6.896;2024-03-07T09:00:21;20.35;;;8.25;;
84301;SDS011;74468;52.218;6.896;2024-03-07T09:02:52;18.92;;;10.35;;
84301;SDS011;74468;52.218;6.896;2024-03-07T09:05:25;21.27;;;10.25;;
84301;SDS011;74468;52.218;6.896;2024-03-07T09:07:52;18.58;;;9.32;;
84301;SDS011;74468;52.218;6.896;2024-03-07T09:10:18;14.45;;;9.13;;
84301;SDS011;74468;52.218;6.896;2024-03-07T09:12:44;22.10;;;10.70;;
84301;SDS011;74468;52.218;6.896;2024-03-07T09:15:09;17.90;;;10.15;;
84301;SDS011;74468;52.218;6.896;2024-03-07T09:17:36;19.80;;;9.20;;
84301;SDS011;74468;52.218;6.896;2024-03-07T09:20:02;24.73;;;11.23;;
84301;SDS011;74468;52.218;6.896;2024-03-07T09:22:30;22.27;;;11.98;;
84301;SDS011;74468;52.218;6.896;2024-03-07T09:24:56;21.70;;;9.98;;
84301;SDS011;74468;52.218;6.896;2024-03-07T09:27:22;25.15;;;12.80;;
84301;SDS011;74468;52.218;6.896;2024-03-07T09:29:47;21.60;;;11.35;;
84301;SDS011;74468;52.218;6.896;2024-03-07T09:32:13;27.38;;;14.25;;
84301;SDS011;74468;52.218;6.896;2024-03-07T09:34:39;22.20;;;11.48;;
84301;SDS011;74468;52.218;6.896;2024-03-07T09:37:04;18.10;;;8.88;;
84301;SDS011;74468;52.218;6.896;2024-03-07T09:39:32;22.67;;;12.10;;
84301;SDS011;74468;52.218;6.896;2024-03-07T09:42:00;24.85;;;13.15;;
84301;SDS011;74468;52.218;6.896;2024-03-07T09:44:26;30.05;;;15.43;;
84301;SDS011;74468;52.218;6.896;2024-03-07T09:46:54;28.42;;;13.35;;
84301;SDS011;74468;52.218;6.896;2024-03-07T09:49:20;25.80;;;14.45;;
84301;SDS011;74468;52.218;6.896;2024-03-07T09:51:47;26.52;;;13.10;;
84301;SDS011;74468;52.218;6.896;2024-03-07T09:54:12;24.02;;;12.63;;
84301;SDS011;74468;52.218;6.896;2024-03-07T09:56:39;20.60;;;11.65;;
84301;SDS011;74468;52.218;6.896;2024-03-07T09:59:06;17.52;;;8.23;;
84301;SDS011;74468;52.218;6.896;2024-03-07T10:01:35;25.10;;;12.65;;
84301;SDS011;74468;52.218;6.896;2024-03-07T10:04:01;26.00;;;14.77;;
84301;SDS011;74468;52.218;6.896;2024-03-07T10:06:36;29.73;;;12.25;;
84301;SDS011;74468;52.218;6.896;2024-03-07T10:09:05;25.05;;;13.63;;
84301;SDS011;74468;52.218;6.896;2024-03-07T10:11:31;30.05;;;14.23;;
84301;SDS011;74468;52.218;6.896;2024-03-07T10:13:57;22.63;;;12.15;;
84301;SDS011;74468;52.218;6.896;2024-03-07T10:16:23;24.67;;;14.23;;
84301;SDS011;74468;52.218;6.896;2024-03-07T10:18:48;29.63;;;14.20;;
84301;SDS011;74468;52.218;6.896;2024-03-07T10:21:15;18.77;;;9.32;;
84301;SDS011;74468;52.218;6.896;2024-03-07T10:23:44;26.50;;;12.35;;
84301;SDS011;74468;52.218;6.896;2024-03-07T10:26:09;22.05;;;10.10;;
84301;SDS011;74468;52.218;6.896;2024-03-07T10:28:35;16.73;;;9.10;;
84301;SDS011;74468;52.218;6.896;2024-03-07T10:33:28;22.38;;;10.77;;
84301;SDS011;74468;52.218;6.896;2024-03-07T10:35:57;14.80;;;7.88;;
84301;SDS011;74468;52.218;6.896;2024-03-07T10:38:23;20.02;;;11.35;;
84301;SDS011;74468;52.218;6.896;2024-03-07T10:40:52;28.17;;;13.10;;
84301;SDS011;74468;52.218;6.896;2024-03-07T10:43:19;21.50;;;10.50;;
84301;SDS011;74468;52.218;6.896;2024-03-07T10:45:46;23.23;;;11.10;;
84301;SDS011;74468;52.218;6.896;2024-03-07T10:48:12;20.45;;;11.48;;
84301;SDS011;74468;52.218;6.896;2024-03-07T10:56:12;18.05;;;10.25;;
84301;SDS011;74468;52.218;6.896;2024-03-07T10:59:00;15.20;;;9.88;;
84301;SDS011;74468;52.218;6.896;2024-03-07T11:01:32;18.38;;;9.75;;
84301;SDS011;74468;52.218;6.896;2024-03-07T11:04:00;21.23;;;11.23;;
84301;SDS011;74468;52.218;6.896;2024-03-07T11:06:30;17.40;;;8.77;;
84301;SDS011;74468;52.218;6.896;2024-03-07T11:08:58;17.52;;;9.43;;
84301;SDS011;74468;52.218;6.896;2024-03-07T11:11:26;19.63;;;10.32;;
84301;SDS011;74468;52.218;6.896;2024-03-07T11:13:52;19.35;;;10.93;;
84301;SDS011;74468;52.218;6.896;2024-03-07T11:19:17;19.08;;;10.10;;
84301;SDS011;74468;52.218;6.896;2024-03-07T11:21:47;16.90;;;7.97;;
84301;SDS011;74468;52.218;6.896;2024-03-07T11:24:26;17.02;;;10.05;;
84301;SDS011;74468;52.218;6.896;2024-03-07T11:26:54;20.50;;;10.38;;
84301;SDS011;74468;52.218;6.896;2024-03-07T11:32:14;16.23;;;8.18;;
84301;SDS011;74468;52.218;6.896;2024-03-07T11:34:40;18.10;;;9.95;;
84301;SDS011;74468;52.218;6.896;2024-03-07T11:37:07;21.77;;;10.40;;
84301;SDS011;74468;52.218;6.896;2024-03-07T11:39:40;24.40;;;12.50;;
84301;SDS011;74468;52.218;6.896;2024-03-07T11:44:58;22.02;;;11.85;;
84301;SDS011;74468;52.218;6.896;2024-03-07T11:47:24;18.17;;;10.43;;
84301;SDS011;74468;52.218;6.896;2024-03-07T11:49:53;29.10;;;14.05;;
84301;SDS011;74468;52.218;6.896;2024-03-07T11:52:19;24.33;;;11.40;;
84301;SDS011;74468;52.218;6.896;2024-03-07T11:54:45;21.58;;;11.45;;
84301;SDS011;74468;52.218;6.896;2024-03-07T11:57:16;13.30;;;7.45;;
84301;SDS011;74468;52.218;6.896;2024-03-07T11:59:44;27.02;;;12.27;;
84301;SDS011;74468;52.218;6.896;2024-03-07T12:02:13;22.65;;;10.60;;
84301;SDS011;74468;52.218;6.896;2024-03-07T12:04:43;22.88;;;10.63;;
84301;SDS011;74468;52.218;6.896;2024-03-07T12:07:08;25.65;;;11.02;;
84301;SDS011;74468;52.218;6.896;2024-03-07T12:09:36;24.45;;;13.23;;
84301;SDS011;74468;52.218;6.896;2024-03-07T12:12:03;25.50;;;11.65;;
84301;SDS011;74468;52.218;6.896;2024-03-07T12:14:29;28.25;;;14.32;;
84301;SDS011;74468;52.218;6.896;2024-03-07T12:16:55;25.08;;;10.88;;
84301;SDS011;74468;52.218;6.896;2024-03-07T12:19:22;20.17;;;10.02;;
84301;SDS011;74468;52.218;6.896;2024-03-07T12:21:48;16.63;;;9.05;;
84301;SDS011;74468;52.218;6.896;2024-03-07T12:24:14;25.92;;;12.80;;
84301;SDS011;74468;52.218;6.896;2024-03-07T12:26:43;23.75;;;12.85;;
84301;SDS011;74468;52.218;6.896;2024-03-07T12:29:09;23.33;;;11.88;;
84301;SDS011;74468;52.218;6.896;2024-03-07T12:31:43;21.27;;;10.55;;
84301;SDS011;74468;52.218;6.896;2024-03-07T12:34:09;24.67;;;12.93;;
84301;SDS011;74468;52.218;6.896;2024-03-07T12:36:35;24.08;;;13.63;;
84301;SDS011;74468;52.218;6.896;2024-03-07T12:39:23;24.55;;;11.13;;
84301;SDS011;74468;52.218;6.896;2024-03-07T12:41:56;18.77;;;6.47;;
84301;SDS011;74468;52.218;6.896;2024-03-07T12:44:21;21.45;;;10.15;;
84301;SDS011;74468;52.218;6.896;2024-03-07T12:46:47;20.20;;;10.02;;
84301;SDS011;74468;52.218;6.896;2024-03-07T12:49:16;22.05;;;11.68;;
84301;SDS011;74468;52.218;6.896;2024-03-07T12:51:42;21.02;;;10.80;;
84301;SDS011;74468;52.218;6.896;2024-03-07T12:54:07;21.67;;;10.88;;
84301;SDS011;74468;52.218;6.896;2024-03-07T12:56:35;22.95;;;11.60;;
84301;SDS011;74468;52.218;6.896;2024-03-07T12:59:02;25.48;;;11.27;;
84301;SDS011;74468;52.218;6.896;2024-03-07T13:01:34;22.00;;;11.38;;
84301;SDS011;74468;52.218;6.896;2024-03-07T13:04:05;19.08;;;8.27;;
84301;SDS011;74468;52.218;6.896;2024-03-07T13:06:33;17.60;;;8.55;;
84301;SDS011;74468;52.218;6.896;2024-03-07T13:08:59;24.63;;;11.20;;
84301;SDS011;74468;52.218;6.896;2024-03-07T13:11:25;29.42;;;10.60;;
84301;SDS011;74468;52.218;6.896;2024-03-07T13:13:55;24.23;;;12.98;;
84301;SDS011;74468;52.218;6.896;2024-03-07T13:16:21;24.77;;;12.10;;
84301;SDS011;74468;52.218;6.896;2024-03-07T13:18:52;21.17;;;12.00;;
84301;SDS011;74468;52.218;6.896;2024-03-07T13:21:20;28.58;;;12.98;;
84301;SDS011;74468;52.218;6.896;2024-03-07T13:23:46;18.40;;;10.63;;
84301;SDS011;74468;52.218;6.896;2024-03-07T13:26:12;24.15;;;11.23;;
84301;SDS011;74468;52.218;6.896;2024-03-07T13:28:45;21.48;;;10.50;;
84301;SDS011;74468;52.218;6.896;2024-03-07T13:31:12;27.30;;;14.27;;
84301;SDS011;74468;52.218;6.896;2024-03-07T13:33:38;17.95;;;8.73;;
84301;SDS011;74468;52.218;6.896;2024-03-07T13:36:03;19.67;;;10.65;;
84301;SDS011;74468;52.218;6.896;2024-03-07T13:38:29;18.95;;;10.02;;
84301;SDS011;74468;52.218;6.896;2024-03-07T13:40:55;25.08;;;12.05;;
84301;SDS011;74468;52.218;6.896;2024-03-07T13:43:22;28.42;;;11.75;;
84301;SDS011;74468;52.218;6.896;2024-03-07T13:45:47;24.25;;;13.93;;
84301;SDS011;74468;52.218;6.896;2024-03-07T13:48:14;20.58;;;10.20;;
84301;SDS011;74468;52.218;6.896;2024-03-07T13:50:42;23.50;;;12.57;;
84301;SDS011;74468;52.218;6.896;2024-03-07T13:53:09;21.98;;;12.70;;
84301;SDS011;74468;52.218;6.896;2024-03-07T13:55:41;19.20;;;10.57;;
84301;SDS011;74468;52.218;6.896;2024-03-07T13:58:13;22.55;;;10.73;;
84301;SDS011;74468;52.218;6.896;2024-03-07T14:03:56;22.35;;;11.77;;
84301;SDS011;74468;52.218;6.896;2024-03-07T14:24:21;19.80;;;10.60;;
84301;SDS011;74468;52.218;6.896;2024-03-07T14:27:23;24.05;;;13.25;;
84301;SDS011;74468;52.218;6.896;2024-03-07T14:32:52;20.30;;;9.73;;
84301;SDS011;74468;52.218;6.896;2024-03-07T14:40:30;22.98;;;11.23;;
84301;SDS011;74468;52.218;6.896;2024-03-07T14:42:56;26.08;;;11.82;;
84301;SDS011;74468;52.218;6.896;2024-03-07T14:45:27;20.23;;;9.65;;
84301;SDS011;74468;52.218;6.896;2024-03-07T14:47:57;22.58;;;9.07;;
84301;SDS011;74468;52.218;6.896;2024-03-07T14:50:22;21.27;;;9.27;;
84301;SDS011;74468;52.218;6.896;2024-03-07T14:52:49;25.80;;;12.65;;
84301;SDS011;74468;52.218;6.896;2024-03-07T14:55:15;15.32;;;8.18;;
84301;SDS011;74468;52.218;6.896;2024-03-07T14:57:44;20.65;;;9.25;;
84301;SDS011;74468;52.218;6.896;2024-03-07T15:00:11;24.70;;;7.38;;
84301;SDS011;74468;52.218;6.896;2024-03-07T15:02:47;18.58;;;9.25;;
84301;SDS011;74468;52.218;6.896;2024-03-07T15:05:14;22.27;;;10.32;;
84301;SDS011;74468;52.218;6.896;2024-03-07T15:07:42;23.60;;;11.02;;
84301;SDS011;74468;52.218;6.896;2024-03-07T15:10:10;23.73;;;12.15;;
84301;SDS011;74468;52.218;6.896;2024-03-07T15:12:44;20.08;;;8.27;;